Time;durP1;ratioP1;P1;durP2;ratioP2;P2;SDS_P1;SDS_P2;PMS_P1;PMS_P2;Temp;Humidity;BMP_temperature;BMP_pressure;BME280_temperature;BME280_humidity;BME280_pressure;Samples;Min_cycle;Max_cycle;Signal;HPM_P1;HPM_P2
2022/10/28 00:02:12;;;;;;;;;;;19.50;69.90;;;;;;5135401;27;20374;-65
2022/10/28 00:04:38;;;;;;;;;;;19.40;69.80;;;;;;5135539;27;20169;-65
2022/10/28 00:07:03;;;;;;;;;;;19.40;69.90;;;;;;5134951;27;20203;-65
2022/10/28 00:09:29;;;;;;;;;;;19.40;69.90;;;;;;5153599;27;19914;-65
2022/10/28 00:11:55;;;;;;;;;;;19.40;69.80;;;;;;5135276;27;20027;-65
2022/10/28 00:14:20;;;;;;;;;;;19.40;69.90;;;;;;5136737;27;19919;-65
2022/10/28 00:16:46;;;;;;;;;;;19.40;69.90;;;;;;5139117;27;19926;-65
2022/10/28 00:19:12;;;;;;;;;;;19.40;69.90;;;;;;5138874;27;19925;-65
2022/10/28 00:21:38;;;;;;;;;;;19.40;69.90;;;;;;5139074;27;19972;-65
2022/10/28 00:24:04;;;;;;;;;;;19.40;69.90;;;;;;5138635;27;19920;-65
2022/10/28 00:26:31;;;;;;;;;;;19.40;69.90;;;;;;5139192;27;20014;-65
2022/10/28 00:28:57;;;;;;;;;;;19.40;69.90;;;;;;5156957;27;20374;-65
2022/10/28 00:31:24;;;;;;;;;;;19.40;69.90;;;;;;5138923;27;19927;-65
2022/10/28 00:33:50;;;;;;;;;;;19.40;69.90;;;;;;5138740;27;19919;-65
2022/10/28 00:36:17;;;;;;;;;;;19.30;69.80;;;;;;5138776;27;20018;-65
2022/10/28 00:38:43;;;;;;;;;;;19.40;69.90;;;;;;5138513;27;20455;-65
2022/10/28 00:41:10;;;;;;;;;;;19.40;69.90;;;;;;5138605;27;19919;-65
2022/10/28 00:43:40;;;;;;;;;;;19.40;69.90;;;;;;5138656;27;20286;-65
2022/10/28 00:46:11;;;;;;;;;;;19.40;69.90;;;;;;5138594;27;19919;-65
2022/10/28 00:48:40;;;;;;;;;;;19.30;69.80;;;;;;5151056;27;20014;-65
2022/10/28 00:51:07;;;;;;;;;;;19.30;69.80;;;;;;5159306;27;19997;-65
2022/10/28 00:53:33;;;;;;;;;;;19.40;69.90;;;;;;5177613;27;20019;-65
2022/10/28 00:56:00;;;;;;;;;;;19.40;69.90;;;;;;5158891;27;20385;-65
2022/10/28 00:58:26;;;;;;;;;;;19.30;69.80;;;;;;5159075;27;19926;-65
2022/10/28 01:00:52;;;;;;;;;;;19.30;69.80;;;;;;5158880;27;19922;-65
2022/10/28 01:03:18;;;;;;;;;;;19.30;69.80;;;;;;5177442;27;19919;-65
2022/10/28 01:05:45;;;;;;;;;;;19.30;69.80;;;;;;5177730;27;19925;-65
2022/10/28 01:08:11;;;;;;;;;;;19.30;69.80;;;;;;5158574;27;20343;-65
2022/10/28 01:10:44;;;;;;;;;;;19.30;69.90;;;;;;5177104;27;19919;-65
2022/10/28 01:13:17;;;;;;;;;;;19.30;69.90;;;;;;5158487;27;19918;-65
2022/10/28 01:18:58;;;;;;;;;;;19.30;69.90;;;;;;5089892;28;19919;-64
2022/10/28 01:34:56;;;;;;;;;;;19.30;69.90;;;;;;5089826;28;19912;-64
2022/10/28 01:37:31;;;;;;;;;;;19.20;69.90;;;;;;5089917;28;19920;-64
2022/10/28 01:40:02;;;;;;;;;;;19.30;70.00;;;;;;5088530;28;19939;-64
2022/10/28 01:42:31;;;;;;;;;;;19.20;69.90;;;;;;5088932;28;19920;-64
2022/10/28 01:45:09;;;;;;;;;;;19.30;70.00;;;;;;5087415;28;19927;-64
2022/10/28 01:53:03;;;;;;;;;;;19.30;69.90;;;;;;5130194;27;1905020;-64
2022/10/28 01:55:31;;;;;;;;;;;19.20;70.00;;;;;;5165482;27;19976;-64
2022/10/28 01:57:59;;;;;;;;;;;19.20;70.00;;;;;;5153481;27;19918;-64
2022/10/28 02:00:25;;;;;;;;;;;19.30;70.00;;;;;;5153463;27;20495;-64
2022/10/28 02:02:51;;;;;;;;;;;19.30;70.00;;;;;;5153648;27;20252;-64
2022/10/28 02:05:37;;;;;;;;;;;19.20;70.00;;;;;;5153278;27;19930;-64
2022/10/28 02:08:15;;;;;;;;;;;19.20;70.00;;;;;;5153173;27;19926;-64
2022/10/28 02:10:46;;;;;;;;;;;19.20;70.00;;;;;;5153403;27;20417;-64
2022/10/28 02:13:13;;;;;;;;;;;19.20;70.00;;;;;;5153488;27;19918;-64
2022/10/28 02:15:42;;;;;;;;;;;19.20;70.00;;;;;;5153339;27;20290;-64
2022/10/28 02:20:57;;;;;;;;;;;19.20;70.00;;;;;;5110176;27;20375;-64
2022/10/28 02:26:11;;;;;;;;;;;19.30;70.10;;;;;;5089110;28;19912;-64
2022/10/28 02:28:40;;;;;;;;;;;19.20;70.00;;;;;;5088598;28;19970;-64
2022/10/28 02:31:15;;;;;;;;;;;19.10;69.90;;;;;;5088389;28;19927;-64
2022/10/28 02:33:43;;;;;;;;;;;19.20;70.00;;;;;;5088717;28;19920;-64
2022/10/28 02:36:11;;;;;;;;;;;19.20;70.00;;;;;;5088727;28;19995;-64
2022/10/28 02:38:46;;;;;;;;;;;19.20;70.00;;;;;;5088579;28;20284;-64
2022/10/28 02:41:15;;;;;;;;;;;19.20;70.00;;;;;;5088594;28;19982;-64
2022/10/28 02:43:42;;;;;;;;;;;19.10;70.00;;;;;;5088109;28;20494;-64
2022/10/28 02:46:08;;;;;;;;;;;19.20;70.00;;;;;;5089455;28;19963;-64
2022/10/28 02:48:37;;;;;;;;;;;19.20;70.10;;;;;;5088073;28;19920;-64
2022/10/28 02:51:07;;;;;;;;;;;19.20;70.00;;;;;;5089908;28;19921;-64
2022/10/28 02:53:38;;;;;;;;;;;19.10;70.00;;;;;;5088193;28;19920;-64
2022/10/28 02:56:05;;;;;;;;;;;19.20;70.00;;;;;;5089548;28;19936;-64
2022/10/28 02:58:36;;;;;;;;;;;19.10;70.00;;;;;;5089175;28;19920;-64
2022/10/28 03:01:02;;;;;;;;;;;19.10;70.00;;;;;;5087981;28;19920;-64
2022/10/28 03:03:27;;;;;;;;;;;19.10;70.00;;;;;;5089071;28;19928;-63
2022/10/28 03:05:53;;;;;;;;;;;19.10;70.10;;;;;;5088989;28;20395;-64
2022/10/28 03:08:18;;;;;;;;;;;19.10;70.00;;;;;;5087907;28;19956;-64
2022/10/28 03:10:44;;;;;;;;;;;19.10;70.10;;;;;;5087770;28;20382;-64
2022/10/28 03:13:09;;;;;;;;;;;19.10;70.00;;;;;;5089162;28;19956;-64
2022/10/28 03:15:35;;;;;;;;;;;19.10;70.00;;;;;;5087750;28;19924;-64
2022/10/28 03:18:01;;;;;;;;;;;19.10;70.00;;;;;;5089134;28;19921;-64
2022/10/28 03:20:26;;;;;;;;;;;19.10;70.00;;;;;;5087499;28;19942;-64
2022/10/28 03:22:52;;;;;;;;;;;19.10;70.00;;;;;;5088608;28;19971;-64
2022/10/28 03:25:17;;;;;;;;;;;19.10;70.10;;;;;;5087252;28;20069;-64
2022/10/28 03:27:42;;;;;;;;;;;19.10;70.10;;;;;;5087729;28;20414;-64
2022/10/28 03:30:08;;;;;;;;;;;19.10;70.10;;;;;;5088719;28;20022;-64
2022/10/28 03:32:34;;;;;;;;;;;19.00;70.00;;;;;;5087557;28;19920;-64
2022/10/28 03:34:59;;;;;;;;;;;19.10;70.10;;;;;;5087524;28;19920;-64
2022/10/28 03:37:25;;;;;;;;;;;19.10;70.10;;;;;;5090348;28;19924;-64
2022/10/28 03:39:50;;;;;;;;;;;19.10;70.10;;;;;;5073675;28;19924;-64
2022/10/28 03:42:16;;;;;;;;;;;19.10;70.10;;;;;;5075158;28;20301;-63
2022/10/28 03:44:41;;;;;;;;;;;19.10;70.10;;;;;;5073340;28;19971;-64
2022/10/28 03:47:07;;;;;;;;;;;19.10;70.10;;;;;;5074906;28;19921;-64
2022/10/28 03:49:32;;;;;;;;;;;19.10;70.10;;;;;;5073517;28;19925;-64
2022/10/28 03:51:58;;;;;;;;;;;19.00;70.10;;;;;;5075037;28;19920;-64
2022/10/28 03:54:23;;;;;;;;;;;19.10;70.10;;;;;;5073540;28;19925;-64
2022/10/28 03:56:49;;;;;;;;;;;19.10;70.10;;;;;;5074899;28;19935;-64
2022/10/28 03:59:14;;;;;;;;;;;19.10;70.10;;;;;;5073684;28;19951;-64
2022/10/28 04:01:40;;;;;;;;;;;19.10;70.10;;;;;;5073477;28;20379;-64
2022/10/28 04:04:05;;;;;;;;;;;19.10;70.10;;;;;;5074502;28;19932;-64
2022/10/28 04:06:31;;;;;;;;;;;19.00;70.10;;;;;;5074678;28;19921;-64
2022/10/28 04:08:56;;;;;;;;;;;19.00;70.10;;;;;;5074432;28;19920;-64
2022/10/28 04:11:22;;;;;;;;;;;19.00;70.10;;;;;;5074400;28;19924;-64
2022/10/28 04:13:48;;;;;;;;;;;19.00;70.10;;;;;;5073169;28;20167;-64
2022/10/28 04:16:13;;;;;;;;;;;19.10;70.10;;;;;;5072983;28;19921;-64
2022/10/28 04:18:39;;;;;;;;;;;19.00;70.10;;;;;;5074312;28;19920;-64
2022/10/28 04:21:04;;;;;;;;;;;19.00;70.10;;;;;;5074315;28;19931;-64
2022/10/28 04:23:30;;;;;;;;;;;19.00;70.20;;;;;;5074287;28;20261;-64
2022/10/28 04:25:55;;;;;;;;;;;19.00;70.10;;;;;;5093321;28;19924;-64
2022/10/28 04:28:23;;;;;;;;;;;19.00;70.10;;;;;;5076218;28;19920;-64
2022/10/28 04:30:48;;;;;;;;;;;19.00;70.10;;;;;;5094339;28;19920;-64
2022/10/28 04:33:14;;;;;;;;;;;19.00;70.10;;;;;;5094250;28;20382;-64
2022/10/28 04:35:42;;;;;;;;;;;19.00;70.10;;;;;;5094217;28;19982;-64
2022/10/28 04:38:08;;;;;;;;;;;19.00;70.10;;;;;;5094175;28;20010;-64
2022/10/28 04:40:33;;;;;;;;;;;19.00;70.10;;;;;;5094009;28;19920;-64
2022/10/28 04:43:02;;;;;;;;;;;19.00;70.10;;;;;;5076220;28;19920;-63
2022/10/28 04:45:27;;;;;;;;;;;19.00;70.10;;;;;;5094081;28;19930;-64
2022/10/28 04:48:00;;;;;;;;;;;19.00;70.10;;;;;;5075340;28;20427;-64
2022/10/28 04:50:26;;;;;;;;;;;19.00;70.10;;;;;;5094054;28;19946;-64
2022/10/28 04:52:54;;;;;;;;;;;19.00;70.10;;;;;;5093835;28;20431;-64
2022/10/28 04:55:19;;;;;;;;;;;19.00;70.20;;;;;;5075845;28;20477;-64
2022/10/28 04:57:53;;;;;;;;;;;19.00;70.10;;;;;;5075554;28;19927;-63
2022/10/28 05:00:18;;;;;;;;;;;18.90;70.10;;;;;;5093754;28;19920;-64
2022/10/28 05:02:44;;;;;;;;;;;19.00;70.10;;;;;;5075471;28;19985;-64
2022/10/28 05:05:09;;;;;;;;;;;19.00;70.10;;;;;;5092393;28;20015;-64
2022/10/28 05:07:35;;;;;;;;;;;18.90;70.10;;;;;;5075717;28;20276;-64
2022/10/28 05:10:00;;;;;;;;;;;19.00;70.10;;;;;;5093472;28;19920;-64
2022/10/28 05:12:26;;;;;;;;;;;18.90;70.10;;;;;;5075338;28;19920;-64
2022/10/28 05:14:51;;;;;;;;;;;19.00;70.10;;;;;;5075312;28;20015;-63
2022/10/28 05:17:17;;;;;;;;;;;18.90;70.10;;;;;;5092368;28;19920;-64
2022/10/28 05:19:44;;;;;;;;;;;18.90;70.10;;;;;;5093463;28;19920;-64
2022/10/28 05:22:09;;;;;;;;;;;19.00;70.10;;;;;;5093317;28;19920;-65
2022/10/28 05:24:35;;;;;;;;;;;18.90;70.10;;;;;;5092871;28;20414;-64
2022/10/28 05:27:00;;;;;;;;;;;18.90;70.10;;;;;;5074975;28;19920;-64
2022/10/28 05:29:26;;;;;;;;;;;18.90;70.10;;;;;;5075597;28;19927;-64
2022/10/28 05:31:51;;;;;;;;;;;18.90;70.10;;;;;;5092408;28;20443;-65
2022/10/28 05:34:17;;;;;;;;;;;18.90;70.40;;;;;;5092133;28;19967;-65
2022/10/28 05:36:42;;;;;;;;;;;18.90;70.80;;;;;;5074590;28;19945;-68
2022/10/28 05:39:08;;;;;;;;;;;18.90;71.10;;;;;;5074109;28;19920;-67
2022/10/28 05:41:34;;;;;;;;;;;19.00;71.20;;;;;;5092753;28;20023;-68
2022/10/28 05:43:59;;;;;;;;;;;19.00;71.20;;;;;;5090944;28;19963;-69
2022/10/28 05:46:25;;;;;;;;;;;19.00;71.40;;;;;;5092163;28;19931;-67
2022/10/28 05:48:50;;;;;;;;;;;19.00;71.70;;;;;;5091914;28;19920;-66
2022/10/28 05:51:16;;;;;;;;;;;18.90;71.90;;;;;;5090115;28;19927;-66
2022/10/28 05:53:43;;;;;;;;;;;19.00;71.70;;;;;;5072374;28;19927;-66
2022/10/28 05:56:08;;;;;;;;;;;19.00;71.70;;;;;;5073158;28;19943;-65
2022/10/28 05:58:34;;;;;;;;;;;19.00;71.70;;;;;;5090901;28;20368;-65
2022/10/28 06:00:59;;;;;;;;;;;19.00;71.40;;;;;;5068892;28;19927;-66
2022/10/28 06:03:25;;;;;;;;;;;19.20;71.50;;;;;;5058990;28;19931;-65
2022/10/28 06:05:50;;;;;;;;;;;19.10;71.60;;;;;;5083927;28;20049;-64
2022/10/28 06:08:16;;;;;;;;;;;19.10;71.40;;;;;;5076000;28;19920;-64
2022/10/28 06:10:48;;;;;;;;;;;19.10;71.40;;;;;;5046075;28;19920;-64
2022/10/28 06:13:14;;;;;;;;;;;19.10;71.40;;;;;;5069627;28;19951;-64
2022/10/28 06:15:39;;;;;;;;;;;19.50;71.60;;;;;;5048667;28;20343;-65
2022/10/28 06:18:05;;;;;;;;;;;19.10;71.40;;;;;;5045636;28;19924;-65
2022/10/28 06:20:30;;;;;;;;;;;19.10;71.40;;;;;;5064278;28;20260;-67
2022/10/28 06:22:56;;;;;;;;;;;19.10;71.40;;;;;;5064408;28;20271;-64
2022/10/28 06:25:22;;;;;;;;;;;19.10;71.30;;;;;;5047222;28;19925;-65
2022/10/28 06:27:52;;;;;;;;;;;19.10;71.40;;;;;;5060298;28;19946;-64
2022/10/28 06:30:17;;;;;;;;;;;19.10;71.40;;;;;;5069158;28;20310;-64
2022/10/28 06:32:43;;;;;;;;;;;19.10;71.40;;;;;;5069803;28;19947;-66
2022/10/28 06:35:08;;;;;;;;;;;19.20;71.50;;;;;;5049153;28;20396;-68
2022/10/28 06:37:34;;;;;;;;;;;19.20;71.60;;;;;;5038506;28;19936;-65
2022/10/28 06:39:59;;;;;;;;;;;19.10;71.50;;;;;;5043413;28;19927;-66
2022/10/28 06:42:25;;;;;;;;;;;19.20;71.40;;;;;;5044596;28;20327;-65
2022/10/28 06:44:51;;;;;;;;;;;19.10;71.40;;;;;;5044237;28;19972;-66
2022/10/28 06:47:17;;;;;;;;;;;19.20;71.60;;;;;;5067916;28;19936;-66
2022/10/28 06:49:42;;;;;;;;;;;19.20;71.60;;;;;;5051502;28;19977;-66
2022/10/28 06:52:08;;;;;;;;;;;19.10;71.50;;;;;;5049114;28;20007;-65
2022/10/28 06:54:33;;;;;;;;;;;19.20;71.60;;;;;;5048985;28;19924;-65
2022/10/28 06:56:59;;;;;;;;;;;19.10;71.70;;;;;;5059891;28;19928;-68
2022/10/28 06:59:24;;;;;;;;;;;19.10;71.40;;;;;;5072303;28;19946;-67
2022/10/28 07:01:50;;;;;;;;;;;19.20;71.60;;;;;;5073813;28;19980;-66
2022/10/28 07:04:15;;;;;;;;;;;19.10;71.50;;;;;;5059983;28;20466;-66
2022/10/28 07:06:40;;;;;;;;;;;19.10;71.40;;;;;;5054241;28;20011;-70
2022/10/28 07:09:06;;;;;;;;;;;19.20;71.40;;;;;;5054421;28;19995;-69
2022/10/28 07:11:32;;;;;;;;;;;19.20;71.40;;;;;;5072365;28;19920;-67
2022/10/28 07:13:57;;;;;;;;;;;19.20;71.40;;;;;;5055650;28;19936;-71
2022/10/28 07:16:23;;;;;;;;;;;19.20;71.70;;;;;;5072981;28;19920;-68
2022/10/28 07:18:48;;;;;;;;;;;19.20;71.60;;;;;;5074570;28;20402;-67
2022/10/28 07:21:17;;;;;;;;;;;19.20;71.60;;;;;;5074480;28;19924;-67
2022/10/28 07:23:42;;;;;;;;;;;19.20;71.60;;;;;;5060407;28;19924;-66
2022/10/28 07:26:08;;;;;;;;;;;19.20;71.70;;;;;;5056280;28;19935;-68
2022/10/28 07:28:33;;;;;;;;;;;19.30;72.00;;;;;;5064183;28;19973;-67
2022/10/28 07:31:00;;;;;;;;;;;19.30;72.10;;;;;;5072225;28;19924;-67
2022/10/28 07:33:25;;;;;;;;;;;19.20;71.90;;;;;;5073178;28;19928;-66
2022/10/28 07:35:51;;;;;;;;;;;19.30;71.90;;;;;;5076245;28;19935;-67
2022/10/28 07:38:16;;;;;;;;;;;19.30;72.00;;;;;;5071887;28;19924;-66
2022/10/28 07:40:42;;;;;;;;;;;19.30;71.90;;;;;;5067659;28;19921;-64
2022/10/28 07:43:08;;;;;;;;;;;19.30;72.00;;;;;;5047157;28;19971;-65
2022/10/28 07:45:34;;;;;;;;;;;19.30;71.90;;;;;;5051293;28;19941;-65
2022/10/28 07:47:59;;;;;;;;;;;19.30;72.00;;;;;;5070595;28;19943;-64
2022/10/28 07:50:25;;;;;;;;;;;19.30;72.10;;;;;;5070552;28;20074;-66
2022/10/28 07:52:50;;;;;;;;;;;19.30;72.00;;;;;;5055092;28;19924;-63
2022/10/28 07:55:16;;;;;;;;;;;19.30;72.20;;;;;;5057499;28;20469;-64
2022/10/28 07:57:41;;;;;;;;;;;19.30;72.20;;;;;;5073491;28;19924;-66
2022/10/28 08:00:07;;;;;;;;;;;19.30;72.40;;;;;;5060070;28;19941;-63
2022/10/28 08:02:33;;;;;;;;;;;19.30;72.50;;;;;;5068185;28;19931;-64
2022/10/28 08:05:00;;;;;;;;;;;19.30;72.50;;;;;;5071975;28;20050;-69
2022/10/28 08:07:26;;;;;;;;;;;19.40;72.50;;;;;;5056946;28;19924;-65
2022/10/28 08:09:51;;;;;;;;;;;19.30;72.50;;;;;;5060630;28;19921;-65
2022/10/28 08:12:17;;;;;;;;;;;19.30;72.30;;;;;;5076665;28;19924;-67
2022/10/28 08:14:42;;;;;;;;;;;19.30;72.20;;;;;;5055203;28;20636;-64
2022/10/28 08:17:08;;;;;;;;;;;19.30;72.40;;;;;;5058642;28;19970;-65
2022/10/28 08:19:33;;;;;;;;;;;19.40;72.50;;;;;;5057330;28;19928;-65
2022/10/28 08:22:01;;;;;;;;;;;19.30;72.50;;;;;;5056933;28;19927;-65
2022/10/28 08:24:26;;;;;;;;;;;19.30;72.50;;;;;;5071991;28;19935;-65
2022/10/28 08:26:52;;;;;;;;;;;19.40;72.50;;;;;;5071420;28;20350;-65
2022/10/28 08:29:17;;;;;;;;;;;19.50;72.70;;;;;;5072629;28;20318;-66
2022/10/28 08:31:43;;;;;;;;;;;19.30;72.60;;;;;;5056623;28;19935;-71
2022/10/28 08:34:08;;;;;;;;;;;19.40;72.50;;;;;;5056637;28;19929;-64
2022/10/28 08:36:34;;;;;;;;;;;19.40;72.50;;;;;;5072574;28;19931;-65
2022/10/28 08:39:00;;;;;;;;;;;19.40;72.80;;;;;;5061049;28;20011;-64
2022/10/28 08:47:07;;;;;;;;;;;19.40;73.20;;;;;;5091701;27;19919;-65
2022/10/28 08:49:35;;;;;;;;;;;19.40;73.20;;;;;;5097288;28;19924;-66
2022/10/28 08:54:46;;;;;;;;;;;19.50;73.30;;;;;;5070637;28;19917;-67
2022/10/28 08:57:15;;;;;;;;;;;19.50;73.30;;;;;;5070963;28;20412;-64
2022/10/28 08:59:42;;;;;;;;;;;19.50;73.50;;;;;;5061251;28;19931;-65
2022/10/28 09:02:16;;;;;;;;;;;19.50;73.40;;;;;;5056116;28;20360;-65
2022/10/28 09:04:43;;;;;;;;;;;19.50;73.70;;;;;;5052674;28;20008;-65
2022/10/28 09:07:15;;;;;;;;;;;19.50;73.80;;;;;;5071183;28;19929;-64
2022/10/28 09:09:40;;;;;;;;;;;19.50;73.80;;;;;;5069466;28;19925;-65
2022/10/28 09:17:41;;;;;;;;;;;19.60;74.40;;;;;;5076990;27;19931;-64
2022/10/28 09:20:26;;;;;;;;;;;19.60;74.50;;;;;;5082256;28;19979;-63
2022/10/28 09:25:47;;;;;;;;;;;19.60;74.20;;;;;;5104822;27;1878958;-64
2022/10/28 09:28:32;;;;;;;;;;;19.60;74.30;;;;;;5156279;27;20021;-64
2022/10/28 09:31:18;;;;;;;;;;;19.60;74.40;;;;;;5155259;27;19934;-64
2022/10/28 09:33:50;;;;;;;;;;;19.60;74.40;;;;;;5172232;27;21239;-63
2022/10/28 09:36:20;;;;;;;;;;;19.70;74.30;;;;;;5175091;27;20795;-65
2022/10/28 09:38:46;;;;;;;;;;;19.40;74.40;;;;;;5157367;27;19923;-65
2022/10/28 09:41:15;;;;;;;;;;;19.60;75.00;;;;;;5159717;27;20397;-64
2022/10/28 09:43:46;;;;;;;;;;;19.70;74.90;;;;;;5171093;27;19938;-63
2022/10/28 09:46:14;;;;;;;;;;;19.70;74.80;;;;;;5161804;27;20453;-64
2022/10/28 09:48:42;;;;;;;;;;;19.70;74.80;;;;;;5155690;27;19923;-65
2022/10/28 09:51:20;;;;;;;;;;;19.70;75.30;;;;;;5157345;27;19926;-64
2022/10/28 09:53:49;;;;;;;;;;;19.70;75.30;;;;;;5155522;27;20131;-66
2022/10/28 09:56:15;;;;;;;;;;;19.70;75.30;;;;;;5172648;27;20290;-65
2022/10/28 09:58:44;;;;;;;;;;;19.80;75.50;;;;;;5155198;27;19923;-67
2022/10/28 10:01:09;;;;;;;;;;;19.80;75.50;;;;;;5158040;27;19965;-68
2022/10/28 10:03:35;;;;;;;;;;;19.80;75.40;;;;;;5151138;27;20010;-67
2022/10/28 10:06:06;;;;;;;;;;;19.80;74.90;;;;;;5172296;27;19954;-65
2022/10/28 10:08:31;;;;;;;;;;;19.80;75.00;;;;;;5170140;27;19923;-69
2022/10/28 10:11:00;;;;;;;;;;;19.80;74.70;;;;;;5156386;27;19922;-65
2022/10/28 10:13:28;;;;;;;;;;;19.80;74.60;;;;;;5160106;27;20070;-69
2022/10/28 10:15:55;;;;;;;;;;;19.80;74.60;;;;;;5175901;27;20032;-64
2022/10/28 10:18:25;;;;;;;;;;;19.80;74.60;;;;;;5174949;27;20319;-66
2022/10/28 10:20:54;;;;;;;;;;;19.90;74.60;;;;;;5156323;27;19923;-69
2022/10/28 10:23:21;;;;;;;;;;;19.80;74.60;;;;;;5157834;27;19997;-70
2022/10/28 10:25:52;;;;;;;;;;;19.90;74.50;;;;;;5156087;27;20293;-68
2022/10/28 10:28:19;;;;;;;;;;;19.90;74.80;;;;;;5156715;27;19926;-68
2022/10/28 10:30:48;;;;;;;;;;;19.90;75.60;;;;;;5169970;27;19934;-68
2022/10/28 10:33:18;;;;;;;;;;;19.90;74.70;;;;;;5170793;27;19994;-68
2022/10/28 10:35:51;;;;;;;;;;;19.90;74.60;;;;;;5167458;27;19923;-68
2022/10/28 10:38:17;;;;;;;;;;;19.90;74.50;;;;;;5159040;27;20352;-68
2022/10/28 10:40:47;;;;;;;;;;;19.90;74.30;;;;;;5138317;27;19929;-68
2022/10/28 10:46:12;;;;;;;;;;;19.90;74.20;;;;;;5071548;27;1863371;-66
2022/10/28 10:48:37;;;;;;;;;;;20.00;74.10;;;;;;5111606;27;19927;-65
2022/10/28 10:51:04;;;;;;;;;;;19.90;74.00;;;;;;5117051;27;19944;-66
2022/10/28 10:53:31;;;;;;;;;;;19.90;73.90;;;;;;5120009;27;19919;-66
2022/10/28 10:56:00;;;;;;;;;;;19.90;73.90;;;;;;5135518;27;19924;-65
2022/10/28 10:58:27;;;;;;;;;;;19.90;73.70;;;;;;5118264;27;19962;-65
2022/10/28 11:00:54;;;;;;;;;;;19.90;73.80;;;;;;5113650;27;19931;-65
2022/10/28 11:03:39;;;;;;;;;;;19.90;74.20;;;;;;5113902;27;20050;-64
2022/10/28 11:06:06;;;;;;;;;;;19.90;74.40;;;;;;5117100;27;19931;-64
2022/10/28 11:14:02;;;;;;;;;;;20.00;74.50;;;;;;5090179;27;19916;-65
2022/10/28 11:16:27;;;;;;;;;;;19.90;74.10;;;;;;5056023;28;19924;-66
2022/10/28 11:18:53;;;;;;;;;;;20.00;74.10;;;;;;5048370;28;19924;-68
2022/10/28 11:21:25;;;;;;;;;;;20.00;74.70;;;;;;5071010;28;20534;-69
2022/10/28 11:24:11;;;;;;;;;;;20.00;75.00;;;;;;5057043;28;19947;-64
2022/10/28 11:26:39;;;;;;;;;;;20.00;74.90;;;;;;5073959;28;19925;-65
2022/10/28 11:29:10;;;;;;;;;;;20.00;74.80;;;;;;5053478;28;19928;-65
2022/10/28 11:31:56;;;;;;;;;;;20.00;74.60;;;;;;5072028;28;19931;-66
2022/10/28 11:34:30;;;;;;;;;;;20.10;74.50;;;;;;5074103;28;20586;-65
2022/10/28 11:37:09;;;;;;;;;;;20.00;74.40;;;;;;5055713;28;19929;-65
2022/10/28 11:39:54;;;;;;;;;;;20.00;74.20;;;;;;5072316;28;19928;-64
2022/10/28 11:48:18;;;;;;;;;;;20.00;74.00;;;;;;5073429;27;19953;-65
2022/10/28 11:53:36;;;;;;;;;;;19.90;73.80;;;;;;5058486;28;19924;-66
2022/10/28 11:56:21;;;;;;;;;;;20.00;73.80;;;;;;5049856;28;19929;-66
2022/10/28 12:01:37;;;;;;;;;;;20.00;73.60;;;;;;5075363;27;19927;-65
2022/10/28 12:04:07;;;;;;;;;;;19.90;73.50;;;;;;5089864;28;19921;-66
2022/10/28 12:06:52;;;;;;;;;;;19.90;73.50;;;;;;5050672;28;20640;-65
2022/10/28 12:09:38;;;;;;;;;;;19.90;73.40;;;;;;5057793;28;19931;-66
2022/10/28 12:12:23;;;;;;;;;;;19.90;73.40;;;;;;5049926;28;20034;-67
2022/10/28 12:15:01;;;;;;;;;;;20.00;73.40;;;;;;5062500;28;19931;-66
2022/10/28 12:17:46;;;;;;;;;;;19.90;73.20;;;;;;5058183;28;20004;-66
2022/10/28 12:20:19;;;;;;;;;;;19.90;73.20;;;;;;5060172;28;19996;-66
2022/10/28 12:25:27;;;;;;;;;;;19.90;73.10;;;;;;5078301;27;19927;-66
2022/10/28 12:27:56;;;;;;;;;;;19.90;73.10;;;;;;5077953;28;20384;-65
2022/10/28 12:30:25;;;;;;;;;;;19.90;73.00;;;;;;5074401;28;20014;-66
2022/10/28 12:32:53;;;;;;;;;;;19.90;73.00;;;;;;5075954;28;19970;-65
2022/10/28 12:35:30;;;;;;;;;;;19.90;72.90;;;;;;5087345;28;19963;-66
2022/10/28 12:40:39;;;;;;;;;;;19.90;72.90;;;;;;5111550;27;1850405;-65
2022/10/28 12:45:47;;;;;;;;;;;19.90;72.80;;;;;;5103615;27;1872899;-66
2022/10/28 12:48:16;;;;;;;;;;;19.90;72.80;;;;;;5131620;27;20410;-66
2022/10/28 12:50:51;;;;;;;;;;;19.90;72.70;;;;;;5138542;27;19968;-67
2022/10/28 12:53:23;;;;;;;;;;;19.90;72.70;;;;;;5140312;27;19981;-66
2022/10/28 12:55:56;;;;;;;;;;;19.90;72.70;;;;;;5157136;27;20314;-67
2022/10/28 12:58:40;;;;;;;;;;;19.90;72.70;;;;;;5142913;27;19926;-66
2022/10/28 13:01:08;;;;;;;;;;;19.90;72.70;;;;;;5136157;27;19919;-66
2022/10/28 13:03:34;;;;;;;;;;;19.90;72.60;;;;;;5139842;27;20466;-66
2022/10/28 13:11:47;;;;;;;;;;;20.00;72.60;;;;;;5087073;27;20311;-66
2022/10/28 13:14:32;;;;;;;;;;;19.90;72.50;;;;;;5073775;28;20747;-66
2022/10/28 13:20:04;;;;;;;;;;;20.00;72.50;;;;;;5089674;27;19968;-66
2022/10/28 13:27:55;;;;;;;;;;;19.90;72.40;;;;;;5076156;27;19921;-66
2022/10/28 13:30:21;;;;;;;;;;;19.90;72.40;;;;;;5050100;28;20402;-66
2022/10/28 13:32:51;;;;;;;;;;;19.90;72.40;;;;;;5049796;28;19920;-66
2022/10/28 13:35:25;;;;;;;;;;;19.90;72.40;;;;;;5063358;28;19924;-66
2022/10/28 13:37:52;;;;;;;;;;;20.00;72.40;;;;;;5048091;28;20051;-66
2022/10/28 13:40:21;;;;;;;;;;;20.00;72.40;;;;;;5047109;28;19920;-66
2022/10/28 13:42:47;;;;;;;;;;;20.00;72.40;;;;;;5048660;28;19943;-66
2022/10/28 13:45:33;;;;;;;;;;;20.00;72.40;;;;;;5064676;28;19931;-66
2022/10/28 13:48:18;;;;;;;;;;;20.00;72.40;;;;;;5048050;28;19935;-66
2022/10/28 13:50:44;;;;;;;;;;;19.90;72.30;;;;;;5071632;28;19978;-66
2022/10/28 13:53:29;;;;;;;;;;;20.00;72.40;;;;;;5076961;28;20377;-66
2022/10/28 13:55:56;;;;;;;;;;;19.90;72.30;;;;;;5071000;28;19934;-66
2022/10/28 13:58:22;;;;;;;;;;;20.00;72.30;;;;;;5060961;28;19924;-66
2022/10/28 14:00:48;;;;;;;;;;;20.00;72.30;;;;;;5073769;28;19920;-66
2022/10/28 14:03:17;;;;;;;;;;;20.00;72.30;;;;;;5054071;28;20015;-66
2022/10/28 14:08:33;;;;;;;;;;;20.00;72.30;;;;;;5072076;27;19916;-66
2022/10/28 14:11:18;;;;;;;;;;;20.00;72.20;;;;;;5058047;28;19925;-66
2022/10/28 14:13:49;;;;;;;;;;;20.00;72.20;;;;;;5093202;28;20012;-66
2022/10/28 14:16:21;;;;;;;;;;;20.00;72.20;;;;;;5058215;28;20014;-67
2022/10/28 14:19:04;;;;;;;;;;;20.00;72.10;;;;;;5062734;28;20358;-67
2022/10/28 14:21:50;;;;;;;;;;;20.00;72.10;;;;;;5060861;28;19920;-68
2022/10/28 14:24:32;;;;;;;;;;;20.00;72.10;;;;;;5056434;28;19932;-67
2022/10/28 14:40:56;;;;;;;;;;;20.00;72.00;;;;;;5097674;27;1860230;-67
2022/10/28 14:46:06;;;;;;;;;;;20.00;71.90;;;;;;5077874;27;1983637;-67
2022/10/28 14:51:14;;;;;;;;;;;20.00;71.90;;;;;;5065944;28;19920;-66
2022/10/28 14:53:40;;;;;;;;;;;20.10;72.00;;;;;;5062851;28;20380;-67
2022/10/28 14:56:09;;;;;;;;;;;20.00;71.90;;;;;;5060438;28;19935;-66
2022/10/28 14:58:37;;;;;;;;;;;20.00;71.90;;;;;;5064169;28;19928;-66
2022/10/28 15:03:45;;;;;;;;;;;20.00;71.90;;;;;;5085170;27;1884685;-67
2022/10/28 15:06:30;;;;;;;;;;;20.00;71.90;;;;;;5128238;27;20037;-67
2022/10/28 15:09:01;;;;;;;;;;;20.00;71.90;;;;;;5110418;28;19924;-68
2022/10/28 15:11:26;;;;;;;;;;;20.00;71.90;;;;;;5129257;28;19930;-67
2022/10/28 15:13:52;;;;;;;;;;;19.60;71.70;;;;;;5122371;27;20018;-67
2022/10/28 15:16:18;;;;;;;;;;;20.00;71.90;;;;;;5131642;27;19919;-67
2022/10/28 15:18:45;;;;;;;;;;;20.00;71.90;;;;;;5149640;27;19946;-67
2022/10/28 15:21:14;;;;;;;;;;;20.00;71.90;;;;;;5150239;27;20022;-67
2022/10/28 15:23:40;;;;;;;;;;;20.00;71.90;;;;;;5149578;27;19923;-66
2022/10/28 15:26:09;;;;;;;;;;;20.10;71.90;;;;;;5150836;27;20422;-66
2022/10/28 15:28:35;;;;;;;;;;;20.00;71.90;;;;;;5147789;27;20006;-66
2022/10/28 15:31:03;;;;;;;;;;;20.00;71.90;;;;;;5122155;27;19966;-67
2022/10/28 15:33:30;;;;;;;;;;;20.10;71.90;;;;;;5130832;27;20314;-67
2022/10/28 15:39:03;;;;;;;;;;;19.90;71.80;;;;;;5087965;27;19912;-66
2022/10/28 15:44:29;;;;;;;;;;;20.10;71.80;;;;;;5109329;27;19913;-66
2022/10/28 15:46:55;;;;;;;;;;;20.00;71.70;;;;;;5108813;28;19924;-66
2022/10/28 15:49:38;;;;;;;;;;;20.00;71.70;;;;;;5108398;28;19920;-66
2022/10/28 15:52:20;;;;;;;;;;;20.10;71.70;;;;;;5091543;28;20007;-66
2022/10/28 15:54:54;;;;;;;;;;;20.00;71.70;;;;;;5142382;27;20222;-66
2022/10/28 15:57:21;;;;;;;;;;;20.10;71.70;;;;;;5108405;28;19963;-66
2022/10/28 15:59:46;;;;;;;;;;;20.00;71.60;;;;;;5108456;28;19965;-66
2022/10/28 16:02:32;;;;;;;;;;;20.00;71.60;;;;;;5107923;28;20343;-66
2022/10/28 16:04:57;;;;;;;;;;;20.10;71.60;;;;;;5109518;28;19977;-66
2022/10/28 16:07:23;;;;;;;;;;;20.10;71.60;;;;;;5109597;28;19920;-66
2022/10/28 16:09:49;;;;;;;;;;;20.20;71.60;;;;;;5090550;28;19927;-66
2022/10/28 16:14:55;;;;;;;;;;;20.00;71.50;;;;;;5108768;27;19912;-66
2022/10/28 16:17:25;;;;;;;;;;;20.00;71.40;;;;;;5091856;28;19952;-66
2022/10/28 16:22:34;;;;;;;;;;;20.00;71.50;;;;;;5124363;27;1856786;-66
2022/10/28 16:24:59;;;;;;;;;;;20.10;71.50;;;;;;5152544;27;19919;-66
2022/10/28 16:27:27;;;;;;;;;;;20.00;71.40;;;;;;5153536;27;19947;-66